createdAt,value
2023-03-13T00:00:02.643Z,0.28
2023-03-13T00:02:09.331Z,0.19
2023-03-13T00:04:15.190Z,0.22
2023-03-13T00:06:20.778Z,0.26
2023-03-13T00:08:25.991Z,0.19
2023-03-13T00:10:31.499Z,0.22
2023-03-13T00:12:37.058Z,0.23
2023-03-13T00:14:42.511Z,0.35
2023-03-13T00:16:47.799Z,0.61
2023-03-13T00:18:53.652Z,1.35
2023-03-13T00:20:59.129Z,1.38
2023-03-13T00:23:05.342Z,1.62
2023-03-13T00:25:10.836Z,1.59
2023-03-13T00:27:16.295Z,1.63
2023-03-13T00:29:21.999Z,1.53
2023-03-13T00:31:27.486Z,1.53
2023-03-13T00:33:33.663Z,1.49
2023-03-13T00:35:38.972Z,1.47
2023-03-13T00:37:44.625Z,1.36
2023-03-13T00:39:49.940Z,1.38
2023-03-13T00:41:55.696Z,1.51
2023-03-13T00:44:01.724Z,1.57
2023-03-13T00:46:07.108Z,1.55
2023-03-13T00:48:13.049Z,1.62
2023-03-13T00:50:18.632Z,1.58
2023-03-13T00:52:23.854Z,1.45
2023-03-13T00:54:29.540Z,1.39
2023-03-13T00:56:35.358Z,1.31
2023-03-13T00:58:41.303Z,1.21
2023-03-13T01:00:46.933Z,1.11
2023-03-13T01:02:52.512Z,1.03
2023-03-13T01:05:00.213Z,1.06
2023-03-13T01:07:05.607Z,1.23
2023-03-13T01:09:11.637Z,1.45
2023-03-13T01:11:18.187Z,1.55
2023-03-13T01:13:23.616Z,1.7
2023-03-13T01:15:28.854Z,1.78
2023-03-13T01:17:34.591Z,1.8
2023-03-13T01:19:42.256Z,1.76
2023-03-13T01:21:48.475Z,1.77
2023-03-13T01:23:53.761Z,1.78
2023-03-13T01:25:59.136Z,1.79
2023-03-13T01:28:04.745Z,1.84
2023-03-13T01:30:10.392Z,1.82
2023-03-13T01:32:16.015Z,1.74
2023-03-13T01:34:21.584Z,1.69
2023-03-13T01:36:27.022Z,1.64
2023-03-13T01:38:32.539Z,1.59
2023-03-13T01:40:38.162Z,1.54
2023-03-13T01:42:43.515Z,1.47
2023-03-13T01:44:48.918Z,1.4
2023-03-13T01:46:54.570Z,1.36
2023-03-13T01:49:00.321Z,1.28
2023-03-13T01:51:05.386Z,1.21
2023-03-13T01:53:10.750Z,1.15
2023-03-13T01:55:17.356Z,1.1
2023-03-13T01:57:22.606Z,0.99
2023-03-13T01:59:28.251Z,0.98
2023-03-13T02:01:35.105Z,0.93
2023-03-13T02:03:41.640Z,0.95
2023-03-13T02:05:46.914Z,0.93
2023-03-13T02:07:52.912Z,0.88
2023-03-13T02:09:58.216Z,0.86
2023-03-13T02:12:04.281Z,0.85
2023-03-13T02:14:09.657Z,0.84
2023-03-13T02:16:15.287Z,0.84
2023-03-13T02:18:21.139Z,0.81
2023-03-13T02:20:26.501Z,0.8
2023-03-13T02:22:32.961Z,0.79
2023-03-13T02:24:38.492Z,0.78
2023-03-13T02:26:44.828Z,0.74
2023-03-13T02:28:50.145Z,0.72
2023-03-13T02:30:55.637Z,0.71
2023-03-13T02:33:01.558Z,0.72
2023-03-13T02:35:07.208Z,0.75
2023-03-13T02:37:13.304Z,0.76
2023-03-13T02:39:18.798Z,0.78
2023-03-13T02:41:23.838Z,0.8
2023-03-13T02:43:29.135Z,0.8
2023-03-13T02:45:34.495Z,0.82
2023-03-13T02:47:40.016Z,0.9
2023-03-13T02:49:45.304Z,0.96
2023-03-13T02:51:50.542Z,0.96
2023-03-13T02:53:56.282Z,0.98
2023-03-13T02:56:01.578Z,1
2023-03-13T02:58:06.975Z,1.12
2023-03-13T03:00:12.173Z,1.19
2023-03-13T03:02:18.718Z,1.18
2023-03-13T03:04:24.236Z,1.25
2023-03-13T03:06:29.381Z,1.3
2023-03-13T03:08:34.702Z,1.34
2023-03-13T03:10:41.010Z,1.32
2023-03-13T03:12:47.087Z,1.39
2023-03-13T03:14:52.350Z,1.43
2023-03-13T03:16:57.917Z,1.43
2023-03-13T03:19:03.254Z,1.43
2023-03-13T03:21:08.606Z,1.4
2023-03-13T03:23:13.977Z,1.38
2023-03-13T03:25:19.575Z,1.41
2023-03-13T03:27:25.100Z,1.47
2023-03-13T03:29:31.855Z,1.48
2023-03-13T03:31:37.310Z,1.56
2023-03-13T03:33:43.062Z,1.59
2023-03-13T03:35:48.396Z,1.6
2023-03-13T03:37:53.806Z,1.58
2023-03-13T03:39:59.127Z,1.59
2023-03-13T03:42:04.693Z,1.61
2023-03-13T03:44:10.090Z,1.66
2023-03-13T03:46:15.873Z,1.64
2023-03-13T03:48:21.757Z,1.66
2023-03-13T03:50:28.368Z,1.66
2023-03-13T03:52:33.659Z,1.64
2023-03-13T03:54:39.395Z,1.67
2023-03-13T03:56:44.818Z,1.64
2023-03-13T03:58:50.464Z,1.63
2023-03-13T04:00:56.880Z,1.65
2023-03-13T04:03:02.513Z,1.65
2023-03-13T04:05:08.116Z,1.64
2023-03-13T04:07:13.735Z,1.65
2023-03-13T04:09:19.106Z,1.64
2023-03-13T04:11:27.457Z,1.67
2023-03-13T04:13:32.708Z,1.67
2023-03-13T04:15:38.178Z,1.66
2023-03-13T04:17:43.957Z,1.66
2023-03-13T04:19:49.485Z,1.67
2023-03-13T04:21:55.150Z,1.68
2023-03-13T04:24:00.631Z,1.7
2023-03-13T04:26:05.994Z,1.68
2023-03-13T04:28:11.557Z,1.68
2023-03-13T04:30:18.611Z,1.66
2023-03-13T04:32:25.619Z,1.66
2023-03-13T04:34:31.425Z,1.61
2023-03-13T04:36:37.174Z,1.59
2023-03-13T04:41:03.533Z,1.57
2023-03-13T04:43:10.043Z,1.5
2023-03-13T04:45:15.265Z,1.5
2023-03-13T04:47:21.057Z,1.45
2023-03-13T04:49:26.726Z,1.47
2023-03-13T04:51:32.054Z,1.47
2023-03-13T04:53:37.454Z,1.47
2023-03-13T04:55:42.860Z,1.46
2023-03-13T04:57:48.458Z,1.45
2023-03-13T04:59:53.766Z,1.45
2023-03-13T05:01:59.984Z,1.44
2023-03-13T05:04:05.407Z,1.45
2023-03-13T05:06:10.714Z,1.42
2023-03-13T05:08:16.674Z,1.44
2023-03-13T05:10:22.077Z,1.45
2023-03-13T05:12:27.512Z,1.44
2023-03-13T05:14:32.752Z,1.46
2023-03-13T05:16:38.405Z,1.47
2023-03-13T05:18:43.376Z,1.49
2023-03-13T05:20:48.850Z,1.5
2023-03-13T05:22:54.306Z,1.48
2023-03-13T05:24:59.858Z,1.5
2023-03-13T05:27:05.044Z,1.54
2023-03-13T05:29:10.531Z,1.53
2023-03-13T05:31:16.276Z,1.54
2023-03-13T05:33:22.069Z,1.56
2023-03-13T05:35:27.404Z,1.6
2023-03-13T05:37:33.097Z,1.61
2023-03-13T05:39:40.591Z,1.64
2023-03-13T05:41:48.808Z,1.63
2023-03-13T05:43:54.484Z,1.69
2023-03-13T05:45:59.985Z,1.66
2023-03-13T05:48:07.577Z,1.65
2023-03-13T05:50:13.028Z,1.67
2023-03-13T05:52:20.331Z,1.72
2023-03-13T05:54:25.540Z,1.75
2023-03-13T05:56:31.047Z,1.79
2023-03-13T05:58:37.450Z,1.82
2023-03-13T06:00:42.827Z,1.85
2023-03-13T06:02:48.562Z,1.88
2023-03-13T06:04:54.847Z,1.93
2023-03-13T06:07:01.912Z,1.94
2023-03-13T06:09:07.130Z,1.97
2023-03-13T06:11:14.168Z,2.05
2023-03-13T06:13:21.864Z,2.09
2023-03-13T06:15:27.965Z,2.1
2023-03-13T06:17:33.806Z,2.14
2023-03-13T06:19:39.488Z,2.18
2023-03-13T06:21:45.273Z,2.22
2023-03-13T06:23:50.994Z,2.25
2023-03-13T06:25:56.641Z,2.29
2023-03-13T06:28:02.589Z,2.36
2023-03-13T06:30:08.066Z,2.38
2023-03-13T06:32:13.737Z,2.42
2023-03-13T06:34:19.703Z,2.49
2023-03-13T06:36:25.933Z,2.61
2023-03-13T06:38:32.383Z,2.58
2023-03-13T06:40:38.045Z,2.63
2023-03-13T06:42:43.686Z,2.78
2023-03-13T06:44:50.996Z,2.81
2023-03-13T06:46:56.382Z,2.91
2023-03-13T06:49:01.957Z,3
2023-03-13T06:51:07.466Z,3.04
2023-03-13T06:53:13.227Z,3.09
2023-03-13T06:55:18.698Z,3.02
2023-03-13T06:57:24.235Z,3.07
2023-03-13T06:59:30.220Z,3.07
2023-03-13T07:01:35.744Z,3.14
2023-03-13T07:03:41.004Z,3.16
2023-03-13T07:05:46.749Z,3.16
2023-03-13T07:07:53.698Z,3.3
2023-03-13T07:10:00.614Z,3.48
2023-03-13T07:12:06.340Z,3.64
2023-03-13T07:14:16.831Z,3.7
2023-03-13T07:16:23.044Z,3.69
2023-03-13T07:18:28.835Z,3.76
2023-03-13T07:20:35.306Z,3.92
2023-03-13T07:22:42.323Z,4.18
2023-03-13T07:24:47.944Z,4.05
2023-03-13T07:27:04.751Z,4.07
2023-03-13T07:29:13.024Z,4.18
2023-03-13T07:31:21.023Z,4.33
2023-03-13T07:33:27.369Z,4.44
2023-03-13T07:35:33.386Z,4.5
2023-03-13T07:37:38.784Z,4.47
2023-03-13T07:39:45.183Z,4.59
2023-03-13T07:41:50.412Z,4.83
2023-03-13T07:43:56.197Z,4.94
2023-03-13T07:46:02.435Z,5.14
2023-03-13T07:48:09.039Z,5.35
2023-03-13T07:50:14.728Z,5.44
2023-03-13T07:52:20.827Z,5.6
2023-03-13T07:54:26.292Z,5.65
2023-03-13T07:56:31.538Z,5.88
2023-03-13T07:58:37.340Z,6
2023-03-13T08:00:42.929Z,5.95
2023-03-13T08:02:48.641Z,5.72
2023-03-13T08:04:56.385Z,5.82
2023-03-13T08:07:03.675Z,6.02
2023-03-13T08:09:09.942Z,6.02
2023-03-13T08:11:16.411Z,6.22
2023-03-13T08:13:21.775Z,6.28
2023-03-13T08:15:27.345Z,6.46
2023-03-13T08:17:33.929Z,6.6
2023-03-13T08:19:39.921Z,6.84
2023-03-13T08:21:46.495Z,6.95
2023-03-13T08:23:51.858Z,6.75
2023-03-13T08:25:57.318Z,7.01
2023-03-13T08:28:03.825Z,6.92
2023-03-13T08:30:09.338Z,7.12
2023-03-13T08:32:15.449Z,7.41
2023-03-13T08:34:20.994Z,7.49
2023-03-13T08:36:26.519Z,7.38
2023-03-13T08:38:32.684Z,7.53
2023-03-13T08:40:38.463Z,7.8
2023-03-13T08:42:44.340Z,7.84
2023-03-13T08:44:50.134Z,7.98
2023-03-13T08:46:55.853Z,7.88
2023-03-13T08:49:01.490Z,8
2023-03-13T08:51:07.741Z,8.01
2023-03-13T08:53:13.506Z,8.46
2023-03-13T08:55:19.496Z,8.54
2023-03-13T08:57:27.179Z,8.81
2023-03-13T08:59:33.883Z,8.63
2023-03-13T09:01:41.191Z,8.72
2023-03-13T09:03:47.905Z,8.93
2023-03-13T09:05:56.164Z,9.21
2023-03-13T09:08:02.781Z,9.27
2023-03-13T09:10:08.761Z,8.96
2023-03-13T09:12:28.301Z,9.12
2023-03-13T09:14:36.930Z,9.63
2023-03-13T09:16:42.413Z,9.93
2023-03-13T09:18:48.537Z,9.45
2023-03-13T09:20:54.258Z,9.67
2023-03-13T09:23:00.241Z,9.92
2023-03-13T09:25:05.767Z,10
2023-03-13T09:27:11.193Z,10.45
2023-03-13T09:29:16.642Z,10.42
2023-03-13T09:31:22.580Z,10.05
2023-03-13T09:33:29.362Z,10.12
2023-03-13T09:35:35.371Z,9.92
2023-03-13T09:37:41.069Z,9.7
2023-03-13T09:39:46.372Z,9.71
2023-03-13T09:41:51.671Z,9.93
2023-03-13T09:43:57.252Z,10.05
2023-03-13T09:46:04.002Z,9.88
2023-03-13T09:48:09.787Z,10.16
2023-03-13T09:50:15.649Z,9.98
2023-03-13T09:52:20.975Z,10
2023-03-13T09:54:26.649Z,10.07
2023-03-13T09:56:32.443Z,10.08
2023-03-13T09:58:38.195Z,10.02
2023-03-13T10:00:46.809Z,9.83
2023-03-13T10:02:52.502Z,10.01
2023-03-13T10:04:58.019Z,10.07
2023-03-13T10:07:03.781Z,10.08
2023-03-13T10:09:09.546Z,10.17
2023-03-13T10:11:15.500Z,10.03
2023-03-13T10:13:21.039Z,10.13
2023-03-13T10:15:26.646Z,10.15
2023-03-13T10:17:31.923Z,10.13
2023-03-13T10:19:37.388Z,10.34
2023-03-13T10:21:42.829Z,10.25
2023-03-13T10:23:48.585Z,10.2
2023-03-13T10:25:54.036Z,10.29
2023-03-13T10:27:59.852Z,10.4
2023-03-13T10:30:05.159Z,10.44
2023-03-13T10:32:10.626Z,10.41
2023-03-13T10:34:16.114Z,10.36
2023-03-13T10:36:21.634Z,10.46
2023-03-13T10:38:27.417Z,10.43
2023-03-13T10:40:33.403Z,10.55
2023-03-13T10:42:39.727Z,10.61
2023-03-13T10:44:45.169Z,10.79
2023-03-13T10:46:51.364Z,10.77
2023-03-13T10:48:57.702Z,10.63
2023-03-13T10:51:03.348Z,11.03
2023-03-13T10:53:09.540Z,11.16
2023-03-13T10:55:15.108Z,11.43
2023-03-13T10:57:20.710Z,11.54
2023-03-13T10:59:26.298Z,11.32
2023-03-13T11:01:31.896Z,11.26
2023-03-13T11:03:37.622Z,11.04
2023-03-13T11:05:43.294Z,10.9
2023-03-13T11:07:51.796Z,11.2
2023-03-13T11:09:57.248Z,11.3
2023-03-13T11:12:02.949Z,11.54
2023-03-13T11:14:08.427Z,11.49
2023-03-13T11:16:13.946Z,11.64
2023-03-13T11:18:20.437Z,11.28
2023-03-13T11:20:26.159Z,11.19
2023-03-13T11:22:31.837Z,11.76
2023-03-13T11:24:37.350Z,12.03
2023-03-13T11:26:47.674Z,11.93
2023-03-13T11:29:09.551Z,12.16
2023-03-13T11:31:15.058Z,12.26
2023-03-13T11:33:21.285Z,12.53
2023-03-13T11:35:27.049Z,11.97
2023-03-13T11:37:32.426Z,11.96
2023-03-13T11:39:38.036Z,12.22
2023-03-13T11:41:43.669Z,12.03
2023-03-13T11:43:50.067Z,12.22
2023-03-13T11:45:56.283Z,12.4
2023-03-13T11:48:02.496Z,12.45
2023-03-13T11:50:08.069Z,12.6
2023-03-13T11:52:13.908Z,12.48
2023-03-13T11:54:19.711Z,12.65
2023-03-13T11:56:25.427Z,12.46
2023-03-13T11:58:30.826Z,12.28
2023-03-13T12:00:36.421Z,12.3
2023-03-13T12:02:42.569Z,12.54
2023-03-13T12:04:48.721Z,12.83
2023-03-13T12:06:54.555Z,12.89
2023-03-13T12:08:59.980Z,12.64
2023-03-13T12:11:05.606Z,12.4
2023-03-13T12:13:11.217Z,12.46
2023-03-13T12:15:19.027Z,12.29
2023-03-13T12:17:24.866Z,12.21
2023-03-13T12:19:30.728Z,12.18
2023-03-13T12:21:36.461Z,12.26
2023-03-13T12:23:42.067Z,12.22
2023-03-13T12:25:48.230Z,12.16
2023-03-13T12:27:53.809Z,12.07
2023-03-13T12:29:59.885Z,12.04
2023-03-13T12:32:05.393Z,12.01
2023-03-13T12:34:11.072Z,12
2023-03-13T12:36:16.903Z,11.98
2023-03-13T12:38:22.487Z,11.83
2023-03-13T12:40:28.473Z,11.73
2023-03-13T12:42:34.318Z,11.72
2023-03-13T12:44:39.662Z,11.6
2023-03-13T12:46:46.034Z,11.54
2023-03-13T12:48:52.694Z,11.43
2023-03-13T12:50:57.948Z,11.35
2023-03-13T12:53:03.529Z,11.15
2023-03-13T12:55:09.360Z,11.13
2023-03-13T12:57:15.030Z,11.11
2023-03-13T12:59:20.878Z,11.04
2023-03-13T13:01:26.491Z,11.02
2023-03-13T13:03:32.644Z,10.98
2023-03-13T13:05:38.082Z,10.93
2023-03-13T13:07:43.479Z,10.92
2023-03-13T13:09:49.044Z,10.83
2023-03-13T13:11:54.649Z,10.73
2023-03-13T13:14:00.373Z,10.63
2023-03-13T13:16:06.403Z,10.58
2023-03-13T13:18:12.332Z,10.54
2023-03-13T13:20:17.697Z,10.48
2023-03-13T13:22:23.159Z,10.35
2023-03-13T13:24:28.776Z,10.32
2023-03-13T13:26:34.429Z,10.31
2023-03-13T13:28:39.752Z,10.19
2023-03-13T13:30:45.015Z,10.19
2023-03-13T13:32:51.114Z,10.17
2023-03-13T13:34:56.738Z,10.08
2023-03-13T13:37:01.996Z,10.06
2023-03-13T13:39:07.746Z,9.98
2023-03-13T13:41:13.358Z,9.99
2023-03-13T13:43:18.689Z,9.95
2023-03-13T13:45:27.054Z,9.87
2023-03-13T13:47:33.702Z,9.88
2023-03-13T13:49:39.569Z,9.8
2023-03-13T13:51:45.717Z,9.78
2023-03-13T13:53:51.605Z,9.79
2023-03-13T13:55:56.840Z,9.79
2023-03-13T13:58:02.256Z,9.73
2023-03-13T14:00:07.907Z,9.74
2023-03-13T14:02:13.814Z,9.69
2023-03-13T14:04:19.515Z,9.63
2023-03-13T14:06:25.887Z,9.62
2023-03-13T14:08:32.530Z,9.58
2023-03-13T14:10:38.900Z,9.52
2023-03-13T14:12:45.485Z,9.54
2023-03-13T14:14:51.404Z,9.56
2023-03-13T14:16:57.445Z,9.56
2023-03-13T14:19:03.229Z,9.54
2023-03-13T14:21:09.819Z,9.49
2023-03-13T14:23:15.456Z,9.49
2023-03-13T14:25:20.859Z,9.5
2023-03-13T14:27:26.611Z,9.51
2023-03-13T14:29:33.871Z,9.56
2023-03-13T14:31:40.195Z,9.56
2023-03-13T14:33:46.577Z,9.54
2023-03-13T14:35:53.154Z,9.52
2023-03-13T14:37:59.582Z,9.54
2023-03-13T14:40:06.341Z,9.51
2023-03-13T14:42:13.060Z,9.5
2023-03-13T14:44:18.863Z,9.59
2023-03-13T14:46:25.102Z,9.65
2023-03-13T14:48:32.007Z,9.72
2023-03-13T14:50:38.087Z,9.75
2023-03-13T14:52:43.313Z,9.83
2023-03-13T14:54:49.580Z,9.88
2023-03-13T14:56:55.884Z,9.93
2023-03-13T14:59:01.503Z,9.9
2023-03-13T15:01:07.981Z,9.79
2023-03-13T15:03:13.727Z,9.71
2023-03-13T15:05:19.598Z,9.66
2023-03-13T15:07:25.875Z,9.6
2023-03-13T15:09:33.798Z,9.43
2023-03-13T15:11:40.352Z,9.43
2023-03-13T15:13:46.923Z,9.37
2023-03-13T15:15:52.942Z,9.32
2023-03-13T15:18:00.357Z,9.28
2023-03-13T15:20:08.471Z,9.28
2023-03-13T15:22:15.892Z,9.27
2023-03-13T15:24:23.781Z,9.26
2023-03-13T15:26:30.861Z,9.25
2023-03-13T15:28:37.091Z,9.21
2023-03-13T15:30:42.765Z,9.21
2023-03-13T15:32:49.686Z,9.19
2023-03-13T15:34:56.355Z,9.14
2023-03-13T15:37:03.224Z,9.16
2023-03-13T15:39:09.615Z,9.15
2023-03-13T15:41:15.853Z,9.12
2023-03-13T15:43:22.377Z,9.14
2023-03-13T15:45:29.886Z,9.12
2023-03-13T15:47:37.240Z,9.06
2023-03-13T15:49:43.649Z,9.03
2023-03-13T15:51:50.348Z,9.06
2023-03-13T15:53:59.791Z,8.97
2023-03-13T15:56:05.889Z,9.01
2023-03-13T15:58:12.097Z,9.01
2023-03-13T16:00:18.517Z,9
2023-03-13T16:02:24.697Z,8.98
2023-03-13T16:04:31.394Z,8.95
2023-03-13T16:06:38.181Z,8.96
2023-03-13T16:08:44.683Z,8.99
2023-03-13T16:10:51.123Z,9.07
2023-03-13T16:12:56.729Z,9.06
2023-03-13T16:15:03.339Z,9.08
2023-03-13T16:17:10.838Z,9.09
2023-03-13T16:19:17.929Z,9.11
2023-03-13T16:21:24.085Z,9.16
2023-03-13T16:23:30.869Z,9.16
2023-03-13T16:25:37.462Z,9.14
2023-03-13T16:27:46.013Z,9.11
2023-03-13T16:29:53.156Z,9.17
2023-03-13T16:32:02.542Z,9.21
2023-03-13T16:34:09.133Z,9.17
2023-03-13T16:36:15.120Z,9.15
2023-03-13T16:38:22.288Z,9.36
2023-03-13T16:40:28.821Z,9.32
2023-03-13T16:42:35.719Z,9.28
2023-03-13T16:44:42.140Z,9.31
2023-03-13T16:46:59.350Z,9.3
2023-03-13T16:49:11.811Z,9.31
2023-03-13T16:51:20.586Z,9.25
2023-03-13T16:53:27.713Z,9.28
2023-03-13T16:55:34.973Z,9.39
2023-03-13T16:57:43.972Z,9.38
2023-03-13T16:59:51.782Z,9.34
2023-03-13T17:02:00.568Z,9.38
2023-03-13T17:04:07.223Z,9.38
2023-03-13T17:06:13.728Z,9.38
2023-03-13T17:08:19.755Z,9.41
2023-03-13T17:10:25.327Z,9.4
2023-03-13T17:12:34.707Z,9.45
2023-03-13T17:14:42.092Z,9.41
2023-03-13T17:16:49.428Z,9.51
2023-03-13T17:19:02.111Z,9.55
2023-03-13T17:21:08.630Z,9.57
2023-03-13T17:23:16.188Z,9.66
2023-03-13T17:25:24.765Z,9.77
2023-03-13T17:27:31.215Z,9.85
2023-03-13T17:29:37.157Z,9.81
2023-03-13T17:31:44.472Z,9.73
2023-03-13T17:33:52.237Z,9.94
2023-03-13T17:35:59.711Z,9.93
2023-03-13T17:38:08.089Z,9.91
2023-03-13T17:40:16.370Z,9.99
2023-03-13T17:42:26.366Z,9.98
2023-03-13T17:44:34.531Z,9.95
2023-03-13T17:46:40.633Z,9.98
2023-03-13T17:48:47.746Z,9.93
2023-03-13T17:50:55.566Z,9.95
2023-03-13T17:53:02.381Z,9.93
2023-03-13T17:55:09.326Z,9.92
2023-03-13T17:57:16.636Z,9.9
2023-03-13T17:59:25.720Z,9.95
2023-03-13T18:01:39.174Z,9.88
2023-03-13T18:03:50.698Z,9.95
2023-03-13T18:05:57.900Z,9.93
2023-03-13T18:08:08.778Z,9.93
2023-03-13T18:10:19.915Z,9.97
2023-03-13T18:12:29.823Z,10.08
2023-03-13T18:14:38.024Z,10.14
2023-03-13T18:16:45.838Z,10.11
2023-03-13T18:18:55.431Z,10.14
2023-03-13T18:21:02.294Z,10.14
2023-03-13T18:23:14.872Z,10.2
2023-03-13T18:25:25.085Z,10.1
2023-03-13T18:27:32.880Z,10.12
2023-03-13T18:29:42.215Z,10.05
2023-03-13T18:31:51.402Z,10.06
2023-03-13T18:34:02.494Z,10.06
2023-03-13T18:36:14.256Z,10.16
2023-03-13T18:38:23.079Z,10.09
2023-03-13T18:40:31.510Z,10.08
2023-03-13T18:42:45.732Z,10.06
2023-03-13T18:44:56.824Z,10.07
2023-03-13T18:47:06.563Z,10.12
2023-03-13T18:49:17.313Z,10.1
2023-03-13T18:51:25.322Z,10.06
2023-03-13T18:53:34.063Z,10.16
2023-03-13T18:55:43.186Z,10.22
2023-03-13T18:57:54.354Z,10.18
2023-03-13T19:00:04.751Z,10.19
2023-03-13T19:02:14.693Z,10.18
2023-03-13T19:04:23.786Z,10.19
2023-03-13T19:06:34.678Z,10.21
2023-03-13T19:08:43.506Z,10.21
2023-03-13T19:10:55.487Z,10.26
2023-03-13T19:13:07.971Z,10.32
2023-03-13T19:15:25.606Z,10.35
2023-03-13T19:17:36.672Z,10.38
2023-03-13T19:19:44.477Z,10.36
2023-03-13T19:21:57.464Z,10.32
2023-03-13T19:24:08.415Z,10.28
2023-03-13T19:26:23.098Z,10.32
2023-03-13T19:28:31.048Z,10.37
2023-03-13T19:30:41.909Z,10.27
2023-03-13T19:32:54.922Z,10.4
2023-03-13T19:35:09.710Z,10.31
2023-03-13T19:37:21.766Z,10.36
2023-03-13T19:39:47.528Z,10.33
2023-03-13T19:42:00.385Z,10.27
2023-03-13T19:44:09.484Z,10.26
2023-03-13T19:46:22.214Z,10.19
2023-03-13T19:48:33.155Z,10.19
2023-03-13T19:50:42.814Z,10.28
2023-03-13T19:52:55.534Z,10.29
2023-03-13T19:55:06.885Z,10.23
2023-03-13T19:57:15.992Z,10.16
2023-03-13T19:59:26.407Z,10.18
2023-03-13T20:01:35.212Z,10.27
2023-03-13T20:03:44.219Z,10.28
2023-03-13T20:05:55.680Z,10.36
2023-03-13T20:08:06.595Z,10.38
2023-03-13T20:10:19.668Z,10.33
2023-03-13T20:12:31.338Z,10.27
2023-03-13T20:14:40.522Z,10.32
2023-03-13T20:16:50.582Z,10.36
2023-03-13T20:19:02.498Z,10.32
2023-03-13T20:21:12.933Z,10.42
2023-03-13T20:23:24.516Z,10.34
2023-03-13T20:25:34.664Z,10.31
2023-03-13T20:27:46.242Z,10.24
2023-03-13T20:29:54.854Z,10.34
2023-03-13T20:32:05.291Z,10.31
2023-03-13T20:34:15.258Z,10.26
2023-03-13T20:36:24.880Z,10.25
2023-03-13T20:38:34.028Z,10.37
2023-03-13T20:40:45.193Z,10.35
2023-03-13T20:42:55.653Z,10.27
2023-03-13T20:45:10.689Z,10.24
2023-03-13T20:47:22.757Z,10.35
2023-03-13T20:49:36.126Z,10.3
2023-03-13T20:51:45.057Z,10.2
2023-03-13T20:53:55.414Z,10.17
2023-03-13T20:56:06.503Z,10.09
2023-03-13T20:58:18.857Z,10.08
2023-03-13T21:00:29.450Z,10.08
2023-03-13T21:02:40.100Z,9.98
2023-03-13T21:04:50.494Z,10.05
2023-03-13T21:06:59.033Z,10.14
2023-03-13T21:09:08.113Z,10.07
2023-03-13T21:11:15.781Z,10.12
2023-03-13T21:13:25.347Z,10.09
2023-03-13T21:15:33.062Z,10.13
2023-03-13T21:17:40.398Z,10.11
2023-03-13T21:19:47.499Z,10.14
2023-03-13T21:21:55.463Z,10.11
2023-03-13T21:24:04.759Z,10.07
2023-03-13T21:26:11.112Z,10.02
2023-03-13T21:28:17.961Z,10
2023-03-13T21:30:24.498Z,10.02
2023-03-13T21:32:33.043Z,10.02
2023-03-13T21:34:39.735Z,10.13
2023-03-13T21:36:45.524Z,10.14
2023-03-13T21:38:51.358Z,10.11
2023-03-13T21:40:57.743Z,10.06
2023-03-13T21:43:03.348Z,10.1
2023-03-13T21:45:10.028Z,10.07
2023-03-13T21:47:15.940Z,10.06
2023-03-13T21:49:23.075Z,10.05
2023-03-13T21:51:28.547Z,10.04
2023-03-13T21:53:34.376Z,10.07
2023-03-13T21:55:40.564Z,10.11
2023-03-13T21:57:47.291Z,10.14
2023-03-13T21:59:57.018Z,10.14
2023-03-13T22:02:02.780Z,10.1
2023-03-13T22:04:08.889Z,10.14
2023-03-13T22:06:14.888Z,10.1
2023-03-13T22:08:20.829Z,10.09
2023-03-13T22:10:26.463Z,10.14
2023-03-13T22:12:32.516Z,10.11
2023-03-13T22:14:39.492Z,10.06
2023-03-13T22:16:45.186Z,10.06
2023-03-13T22:18:50.921Z,10.08
2023-03-13T22:20:56.634Z,10.07
2023-03-13T22:23:02.048Z,10.03
2023-03-13T22:25:07.626Z,10.03
2023-03-13T22:27:15.852Z,10.02
2023-03-13T22:29:21.323Z,10.01
2023-03-13T22:31:26.762Z,9.97
2023-03-13T22:33:32.665Z,9.95
2023-03-13T22:35:39.330Z,9.91
2023-03-13T22:37:44.896Z,9.89
2023-03-13T22:39:51.051Z,9.89
2023-03-13T22:41:56.811Z,9.84
2023-03-13T22:44:02.036Z,9.82
2023-03-13T22:46:07.467Z,9.79
2023-03-13T22:48:14.172Z,9.79
2023-03-13T22:50:19.579Z,9.71
2023-03-13T22:52:24.869Z,9.69
2023-03-13T22:54:30.094Z,9.56
2023-03-13T22:56:36.348Z,9.53
2023-03-13T22:58:41.733Z,9.47
2023-03-13T23:00:48.141Z,9.4
2023-03-13T23:02:53.850Z,9.25
2023-03-13T23:04:59.302Z,9.07
2023-03-13T23:07:04.976Z,9.18
2023-03-13T23:09:10.522Z,9.02
2023-03-13T23:11:16.128Z,8.85
2023-03-13T23:13:21.394Z,8.72
2023-03-13T23:15:29.698Z,8.64
2023-03-13T23:18:00.785Z,8.55
2023-03-13T23:20:06.388Z,8.49
2023-03-13T23:22:11.617Z,8.37
2023-03-13T23:24:16.849Z,8.38
2023-03-13T23:26:22.169Z,8.2
2023-03-13T23:28:27.325Z,8.14
2023-03-13T23:30:32.659Z,8.18
2023-03-13T23:32:37.982Z,8.02
2023-03-13T23:34:46.659Z,7.94
2023-03-13T23:36:51.872Z,7.85
2023-03-13T23:38:57.123Z,7.87
2023-03-13T23:41:02.549Z,7.82
2023-03-13T23:43:09.054Z,7.76
2023-03-13T23:45:14.292Z,7.69
2023-03-13T23:47:19.602Z,7.67
2023-03-13T23:49:24.914Z,7.59
2023-03-13T23:51:30.193Z,7.69
2023-03-13T23:53:35.767Z,7.64
2023-03-13T23:55:41.044Z,7.66
2023-03-13T23:57:46.746Z,7.51
2023-03-13T23:59:53.097Z,7.43
